createdAt,value
2023-09-08T00:01:00.050Z,5.50
2023-09-08T00:03:32.522Z,4.85
2023-09-08T00:06:06.106Z,5.00
2023-09-08T00:08:38.314Z,5.00
2023-09-08T00:11:10.702Z,5.20
2023-09-08T00:13:46.224Z,5.30
2023-09-08T00:16:18.990Z,5.15
2023-09-08T00:18:51.421Z,5.38
2023-09-08T00:21:24.526Z,4.72
2023-09-08T00:23:56.684Z,4.97
2023-09-08T00:26:29.485Z,4.95
2023-09-08T00:29:05.402Z,4.85
2023-09-08T00:31:38.776Z,5.40
2023-09-08T00:34:10.635Z,4.70
2023-09-08T00:36:42.766Z,4.63
2023-09-08T00:39:16.192Z,4.97
2023-09-08T00:41:49.697Z,5.13
2023-09-08T00:44:26.041Z,5.15
2023-09-08T00:46:58.899Z,4.78
2023-09-08T00:49:31.703Z,4.93
2023-09-08T00:52:42.685Z,5.28
2023-09-08T00:55:15.692Z,4.80
2023-09-08T00:57:48.784Z,4.80
2023-09-08T01:00:23.503Z,5.13
2023-09-08T01:02:54.789Z,4.90
2023-09-08T01:05:26.708Z,4.90
2023-09-08T01:07:58.298Z,4.47
2023-09-08T01:10:30.505Z,5.10
2023-09-08T01:13:01.628Z,5.22
2023-09-08T01:15:35.656Z,5.15
2023-09-08T01:18:12.317Z,4.70
2023-09-08T01:21:05.196Z,5.45
2023-09-08T01:23:54.058Z,4.63
2023-09-08T01:26:31.828Z,4.70
2023-09-08T01:29:06.901Z,4.97
2023-09-08T01:31:39.616Z,4.53
2023-09-08T01:34:16.651Z,4.60
2023-09-08T01:36:50.618Z,5.00
2023-09-08T01:39:24.121Z,4.80
2023-09-08T01:41:59.678Z,4.85
2023-09-08T01:44:32.008Z,5.10
2023-09-08T01:47:04.937Z,5.20
2023-09-08T01:49:36.970Z,4.93
2023-09-08T01:52:10.413Z,5.10
2023-09-08T01:54:42.329Z,4.88
2023-09-08T01:57:16.698Z,4.80
2023-09-08T01:59:49.811Z,4.97
2023-09-08T02:02:22.002Z,4.45
2023-09-08T02:04:54.150Z,4.85
2023-09-08T02:07:27.120Z,4.60
2023-09-08T02:09:59.275Z,4.78
2023-09-08T02:12:34.479Z,4.45
2023-09-08T02:15:08.708Z,4.43
2023-09-08T02:17:40.839Z,4.82
2023-09-08T02:20:16.105Z,4.30
2023-09-08T02:22:49.833Z,4.70
2023-09-08T02:25:22.657Z,5.15
2023-09-08T02:27:57.788Z,4.70
2023-09-08T02:30:30.386Z,4.72
2023-09-08T02:33:04.601Z,4.85
2023-09-08T02:35:41.739Z,4.50
2023-09-08T02:38:14.717Z,4.53
2023-09-08T02:40:48.597Z,4.68
2023-09-08T02:43:23.975Z,4.80
2023-09-08T02:45:56.788Z,4.38
2023-09-08T02:48:29.385Z,4.57
2023-09-08T02:51:01.394Z,4.78
2023-09-08T02:53:33.623Z,4.57
2023-09-08T02:56:07.469Z,4.38
2023-09-08T02:58:41.684Z,4.35
2023-09-08T03:01:16.540Z,4.63
2023-09-08T03:03:48.868Z,4.30
2023-09-08T03:06:24.046Z,4.53
2023-09-08T03:08:55.948Z,4.10
2023-09-08T03:11:29.257Z,4.90
2023-09-08T03:14:03.218Z,4.47
2023-09-08T03:16:36.365Z,5.10
2023-09-08T03:19:09.371Z,4.85
2023-09-08T03:21:41.910Z,4.65
2023-09-08T03:24:13.771Z,4.95
2023-09-08T03:26:45.095Z,4.78
2023-09-08T03:29:19.519Z,4.78
2023-09-08T03:31:52.123Z,4.72
2023-09-08T03:34:25.274Z,4.38
2023-09-08T03:36:58.918Z,4.40
2023-09-08T03:39:31.923Z,4.80
2023-09-08T03:42:04.180Z,5.07
2023-09-08T03:44:38.558Z,4.97
2023-09-08T03:47:10.915Z,4.97
2023-09-08T03:49:42.649Z,5.03
2023-09-08T03:52:14.913Z,4.75
2023-09-08T03:54:47.895Z,4.60
2023-09-08T03:57:20.222Z,4.40
2023-09-08T03:59:54.309Z,4.13
2023-09-08T04:02:26.596Z,4.60
2023-09-08T04:04:59.357Z,4.97
2023-09-08T04:07:32.173Z,4.90
2023-09-08T04:10:04.554Z,5.00
2023-09-08T04:12:36.582Z,4.65
2023-09-08T04:15:12.802Z,4.93
2023-09-08T04:17:44.691Z,4.80
2023-09-08T04:20:18.398Z,4.85
2023-09-08T04:22:50.650Z,4.80
2023-09-08T04:25:23.117Z,5.25
2023-09-08T04:27:54.682Z,5.43
2023-09-08T04:30:28.860Z,5.10
2023-09-08T04:33:03.896Z,4.97
2023-09-08T04:35:38.441Z,4.68
2023-09-08T04:38:13.721Z,4.38
2023-09-08T04:40:47.447Z,4.63
2023-09-08T04:43:21.721Z,4.70
2023-09-08T04:45:59.229Z,4.70
2023-09-08T04:48:33.775Z,5.13
2023-09-08T04:51:10.016Z,4.55
2023-09-08T04:53:45.632Z,4.85
2023-09-08T04:59:00.864Z,4.78
2023-09-08T05:01:39.422Z,4.63
2023-09-08T05:04:16.449Z,4.88
2023-09-08T05:06:51.184Z,4.82
2023-09-08T05:09:29.191Z,4.50
2023-09-08T05:12:04.361Z,5.07
2023-09-08T05:14:40.824Z,5.18
2023-09-08T05:17:17.605Z,4.40
2023-09-08T05:19:52.425Z,4.93
2023-09-08T05:22:29.593Z,4.63
2023-09-08T05:25:06.747Z,4.18
2023-09-08T05:27:39.056Z,4.75
2023-09-08T05:30:15.678Z,5.15
2023-09-08T05:32:53.462Z,5.50
2023-09-08T05:35:26.288Z,4.78
2023-09-08T05:38:01.143Z,5.10
2023-09-08T05:40:36.764Z,4.32
2023-09-08T05:43:10.756Z,4.70
2023-09-08T05:45:44.890Z,4.40
2023-09-08T05:48:23.832Z,4.35
2023-09-08T05:51:00.102Z,4.38
2023-09-08T05:53:38.006Z,4.43
2023-09-08T05:56:14.061Z,4.80
2023-09-08T05:58:53.000Z,4.15
2023-09-08T06:01:30.029Z,4.45
2023-09-08T06:04:08.262Z,4.30
2023-09-08T06:06:45.080Z,4.25
2023-09-08T06:09:21.480Z,5.20
2023-09-08T06:11:57.226Z,4.60
2023-09-08T06:14:30.147Z,4.70
2023-09-08T06:17:06.134Z,4.50
2023-09-08T06:19:44.994Z,3.75
2023-09-08T06:22:17.958Z,4.60
2023-09-08T06:24:52.768Z,4.05
2023-09-08T06:27:27.883Z,3.92
2023-09-08T06:30:04.420Z,4.28
2023-09-08T06:32:42.260Z,4.43
2023-09-08T06:35:22.244Z,4.75
2023-09-08T06:38:01.803Z,3.95
2023-09-08T06:40:39.857Z,4.30
2023-09-08T06:43:12.934Z,3.72
2023-09-08T06:45:59.266Z,3.28
2023-09-08T06:48:36.109Z,4.38
2023-09-08T06:51:13.504Z,3.15
2023-09-08T06:53:50.891Z,4.13
2023-09-08T06:56:31.551Z,3.80
2023-09-08T06:59:08.359Z,3.65
2023-09-08T07:01:44.918Z,3.50
2023-09-08T07:04:24.642Z,3.90
2023-09-08T07:07:09.180Z,4.10
2023-09-08T07:09:53.897Z,4.43
2023-09-08T07:12:32.064Z,4.18
2023-09-08T07:15:11.563Z,3.47
2023-09-08T07:17:49.365Z,3.75
2023-09-08T07:20:23.986Z,3.20
2023-09-08T07:22:59.058Z,4.38
2023-09-08T07:25:30.890Z,3.45
2023-09-08T07:28:04.709Z,3.47
2023-09-08T07:30:38.883Z,3.53
2023-09-08T07:33:11.888Z,3.42
2023-09-08T07:35:46.864Z,3.63
2023-09-08T07:38:23.385Z,3.58
2023-09-08T07:40:57.665Z,3.33
2023-09-08T07:43:32.710Z,3.10
2023-09-08T07:46:05.983Z,3.65
2023-09-08T07:48:39.537Z,3.00
2023-09-08T07:51:12.481Z,2.90
2023-09-08T07:53:48.112Z,3.00
2023-09-08T07:56:22.619Z,3.40
2023-09-08T07:58:58.394Z,3.08
2023-09-08T08:01:35.280Z,3.40
2023-09-08T08:04:11.081Z,2.75
2023-09-08T08:06:53.077Z,3.47
2023-09-08T08:09:31.443Z,2.97
2023-09-08T08:12:07.627Z,2.78
2023-09-08T08:14:43.349Z,3.20
2023-09-08T08:17:19.135Z,2.88
2023-09-08T08:19:53.440Z,3.17
2023-09-08T08:22:30.236Z,3.20
2023-09-08T08:25:11.721Z,2.97
2023-09-08T08:27:47.944Z,2.97
2023-09-08T08:30:24.387Z,3.25
2023-09-08T08:32:59.575Z,2.80
2023-09-08T08:38:07.361Z,3.17
2023-09-08T08:40:46.099Z,3.00
2023-09-08T08:43:22.005Z,3.13
2023-09-08T08:46:00.805Z,3.25
2023-09-08T08:48:37.666Z,3.55
2023-09-08T08:51:16.462Z,3.30
2023-09-08T08:53:50.062Z,3.35
2023-09-08T08:56:26.052Z,3.70
2023-09-08T08:59:00.555Z,3.38
2023-09-08T09:01:33.475Z,3.20
2023-09-08T09:04:10.923Z,3.35
2023-09-08T09:06:44.905Z,3.00
2023-09-08T09:09:22.558Z,2.60
2023-09-08T09:12:05.720Z,2.55
2023-09-08T09:14:41.210Z,2.75
2023-09-08T09:17:18.073Z,2.97
2023-09-08T09:19:54.785Z,3.00
2023-09-08T09:22:42.293Z,2.90
2023-09-08T09:25:29.415Z,3.03
2023-09-08T09:28:08.360Z,2.63
2023-09-08T09:30:55.354Z,3.05
2023-09-08T09:33:32.057Z,2.42
2023-09-08T09:36:08.558Z,2.95
2023-09-08T09:38:44.384Z,3.03
2023-09-08T09:41:19.665Z,2.88
2023-09-08T09:44:01.277Z,2.83
2023-09-08T09:46:40.094Z,3.05
2023-09-08T09:49:20.181Z,2.70
2023-09-08T09:51:56.493Z,3.10
2023-09-08T09:54:31.516Z,3.13
2023-09-08T09:57:07.354Z,2.85
2023-09-08T09:59:46.044Z,3.58
2023-09-08T10:02:23.916Z,3.45
2023-09-08T10:04:59.742Z,3.40
2023-09-08T10:07:36.157Z,3.63
2023-09-08T10:10:12.406Z,3.10
2023-09-08T10:12:53.056Z,3.10
2023-09-08T10:15:32.737Z,3.42
2023-09-08T10:18:11.664Z,3.45
2023-09-08T10:20:50.626Z,3.33
2023-09-08T10:23:34.951Z,3.28
2023-09-08T10:26:15.852Z,3.55
2023-09-08T10:28:51.483Z,3.03
2023-09-08T10:31:33.429Z,3.50
2023-09-08T10:34:10.058Z,3.17
2023-09-08T10:36:44.731Z,3.00
2023-09-08T10:39:39.557Z,3.17
2023-09-08T10:42:32.643Z,2.95
2023-09-08T10:45:20.119Z,3.50
2023-09-08T10:48:06.934Z,3.50
2023-09-08T10:50:46.954Z,3.22
2023-09-08T10:53:27.342Z,3.17
2023-09-08T10:58:45.190Z,4.18
2023-09-08T11:01:26.644Z,3.63
2023-09-08T11:04:13.716Z,3.20
2023-09-08T11:06:51.588Z,3.42
2023-09-08T11:09:27.364Z,3.33
2023-09-08T11:17:12.888Z,3.35
2023-09-08T11:19:59.963Z,3.17
2023-09-08T11:22:37.858Z,3.75
2023-09-08T11:25:18.597Z,2.78
2023-09-08T11:27:56.222Z,3.85
2023-09-08T11:30:31.446Z,2.97
2023-09-08T11:33:07.244Z,2.78
2023-09-08T11:35:46.259Z,3.08
2023-09-08T11:38:21.855Z,2.72
2023-09-08T11:40:55.579Z,2.72
2023-09-08T11:43:30.636Z,2.80
2023-09-08T11:46:05.309Z,3.10
2023-09-08T11:48:42.845Z,3.00
2023-09-08T11:51:22.632Z,3.50
2023-09-08T11:53:58.733Z,3.03
2023-09-08T11:56:34.243Z,3.00
2023-09-08T11:59:26.115Z,3.15
2023-09-08T12:01:58.298Z,2.97
2023-09-08T12:04:33.493Z,3.53
2023-09-08T12:07:07.345Z,4.05
2023-09-08T12:09:40.081Z,3.35
2023-09-08T12:12:18.523Z,3.50
2023-09-08T12:14:58.330Z,3.38
2023-09-08T12:17:31.768Z,3.50
2023-09-08T12:20:19.555Z,3.38
2023-09-08T12:22:57.259Z,3.65
2023-09-08T12:25:36.225Z,3.13
2023-09-08T12:28:14.485Z,3.47
2023-09-08T12:30:57.710Z,3.22
2023-09-08T12:33:34.014Z,3.50
2023-09-08T12:36:16.654Z,3.22
2023-09-08T12:38:55.953Z,2.65
2023-09-08T12:41:28.961Z,3.00
2023-09-08T12:44:03.717Z,3.20
2023-09-08T12:46:40.255Z,3.10
2023-09-08T12:49:13.321Z,3.70
2023-09-08T12:51:46.947Z,3.47
2023-09-08T12:54:21.596Z,3.33
2023-09-08T12:56:56.307Z,3.20
2023-09-08T12:59:31.120Z,3.58
2023-09-08T13:02:09.341Z,3.85
2023-09-08T13:04:50.837Z,3.22
2023-09-08T13:07:28.456Z,4.35
2023-09-08T13:10:04.716Z,3.42
2023-09-08T13:12:39.825Z,4.03
2023-09-08T13:15:15.893Z,4.00
2023-09-08T13:17:56.001Z,3.55
2023-09-08T13:20:30.534Z,4.15
2023-09-08T13:23:04.871Z,3.67
2023-09-08T13:25:39.596Z,4.18
2023-09-08T13:28:16.057Z,3.45
2023-09-08T13:30:52.481Z,3.53
2023-09-08T13:33:33.127Z,3.47
2023-09-08T13:36:08.077Z,3.35
2023-09-08T13:38:43.705Z,3.65
2023-09-08T13:41:20.524Z,3.55
2023-09-08T13:43:55.589Z,3.47
2023-09-08T13:46:31.814Z,3.60
2023-09-08T13:49:10.108Z,3.65
2023-09-08T13:51:49.051Z,4.47
2023-09-08T13:54:30.289Z,3.40
2023-09-08T13:57:08.923Z,4.80
2023-09-08T13:59:49.438Z,4.15
2023-09-08T14:02:42.349Z,3.55
2023-09-08T14:05:28.703Z,4.40
2023-09-08T14:08:11.156Z,3.42
2023-09-08T14:13:35.844Z,4.00
2023-09-08T14:16:10.276Z,3.70
2023-09-08T14:18:45.110Z,3.72
2023-09-08T14:21:23.845Z,3.80
2023-09-08T14:23:58.076Z,3.45
2023-09-08T14:26:34.956Z,3.53
2023-09-08T14:29:08.931Z,3.80
2023-09-08T14:31:44.153Z,4.15
2023-09-08T14:34:18.367Z,3.33
2023-09-08T14:36:56.115Z,3.90
2023-09-08T14:39:31.326Z,3.72
2023-09-08T14:42:04.188Z,3.58
2023-09-08T14:44:38.134Z,3.30
2023-09-08T14:47:12.482Z,3.00
2023-09-08T14:49:49.833Z,3.75
2023-09-08T14:52:27.818Z,4.22
2023-09-08T14:55:00.525Z,3.50
2023-09-08T14:57:35.401Z,4.97
2023-09-08T15:00:10.915Z,3.85
2023-09-08T15:02:43.950Z,3.78
2023-09-08T15:05:17.192Z,3.53
2023-09-08T15:07:53.214Z,3.50
2023-09-08T15:10:30.510Z,3.33
2023-09-08T15:13:06.342Z,3.53
2023-09-08T15:15:38.054Z,3.70
2023-09-08T15:18:11.123Z,4.05
2023-09-08T15:20:43.129Z,4.10
2023-09-08T15:23:18.382Z,4.55
2023-09-08T15:25:56.685Z,4.20
2023-09-08T15:28:29.465Z,3.47
2023-09-08T15:31:03.563Z,4.05
2023-09-08T15:33:37.338Z,4.10
2023-09-08T15:36:11.154Z,3.97
2023-09-08T15:38:46.557Z,4.20
2023-09-08T15:41:22.004Z,3.50
2023-09-08T15:43:56.908Z,3.80
2023-09-08T15:49:01.272Z,3.42
2023-09-08T15:51:34.107Z,3.83
2023-09-08T15:54:10.346Z,4.22
2023-09-08T15:56:41.942Z,3.97
2023-09-08T15:59:13.960Z,3.47
2023-09-08T16:01:46.629Z,3.20
2023-09-08T16:04:18.470Z,3.33
2023-09-08T16:06:51.190Z,4.15
2023-09-08T16:09:26.014Z,3.70
2023-09-08T16:12:01.526Z,5.55
2023-09-08T16:14:33.395Z,4.32
2023-09-08T16:17:05.361Z,3.95
2023-09-08T16:19:39.225Z,3.67
2023-09-08T16:22:11.418Z,4.35
2023-09-08T16:24:45.916Z,3.78
2023-09-08T16:27:19.113Z,3.85
2023-09-08T16:29:51.499Z,3.58
2023-09-08T16:32:24.538Z,4.40
2023-09-08T16:34:56.526Z,4.07
2023-09-08T16:37:29.768Z,4.10
2023-09-08T16:40:08.585Z,3.88
2023-09-08T16:43:05.667Z,4.05
2023-09-08T16:45:39.616Z,4.10
2023-09-08T16:48:11.339Z,4.57
2023-09-08T16:50:42.684Z,4.80
2023-09-08T16:53:14.011Z,7.55
2023-09-08T16:55:47.894Z,4.20
2023-09-08T16:58:19.307Z,4.63
2023-09-08T17:00:50.573Z,6.00
2023-09-08T17:03:22.263Z,5.03
2023-09-08T17:05:53.788Z,5.10
2023-09-08T17:08:26.060Z,4.75
2023-09-08T17:10:59.917Z,4.65
2023-09-08T17:13:31.378Z,4.70
2023-09-08T17:16:03.697Z,4.45
2023-09-08T17:18:35.521Z,3.90
2023-09-08T17:21:09.434Z,4.03
2023-09-08T17:23:40.864Z,4.15
2023-09-08T17:26:15.089Z,4.60
2023-09-08T17:28:47.127Z,4.05
2023-09-08T17:31:21.387Z,4.50
2023-09-08T17:33:53.196Z,4.07
2023-09-08T17:36:24.632Z,4.10
2023-09-08T17:38:56.659Z,4.32
2023-09-08T17:41:30.580Z,4.65
2023-09-08T17:44:03.580Z,4.47
2023-09-08T17:46:37.776Z,4.28
2023-09-08T17:49:10.382Z,3.88
2023-09-08T17:51:42.720Z,4.28
2023-09-08T17:54:15.088Z,3.85
2023-09-08T17:56:50.053Z,4.90
2023-09-08T17:59:25.063Z,3.88
2023-09-08T18:01:57.276Z,4.75
2023-09-08T18:04:29.249Z,4.20
2023-09-08T18:07:01.408Z,4.05
2023-09-08T18:09:34.075Z,4.78
2023-09-08T18:12:09.773Z,4.15
2023-09-08T18:14:43.446Z,4.65
2023-09-08T18:17:15.236Z,4.95
2023-09-08T18:19:47.808Z,5.07
2023-09-08T18:22:20.187Z,4.30
2023-09-08T18:24:52.734Z,4.20
2023-09-08T18:27:28.640Z,4.20
2023-09-08T18:30:00.634Z,4.30
2023-09-08T18:32:33.445Z,4.35
2023-09-08T18:35:12.152Z,4.70
2023-09-08T18:37:44.926Z,3.95
2023-09-08T18:40:17.982Z,4.65
2023-09-08T18:42:52.844Z,4.25
2023-09-08T18:45:25.400Z,3.75
2023-09-08T18:47:56.982Z,4.57
2023-09-08T18:50:28.730Z,4.80
2023-09-08T18:53:01.182Z,4.10
2023-09-08T18:55:33.546Z,4.68
2023-09-08T18:58:10.437Z,4.63
2023-09-08T19:00:48.108Z,5.10
2023-09-08T19:03:20.598Z,4.53
2023-09-08T19:05:53.696Z,4.63
2023-09-08T19:08:25.871Z,4.18
2023-09-08T19:10:59.035Z,4.38
2023-09-08T19:13:33.389Z,4.35
2023-09-08T19:16:05.527Z,4.07
2023-09-08T19:18:38.466Z,5.10
2023-09-08T19:21:11.425Z,4.72
2023-09-08T19:23:45.820Z,3.85
2023-09-08T19:26:17.482Z,4.65
2023-09-08T19:28:51.536Z,4.43
2023-09-08T19:31:23.677Z,4.70
2023-09-08T19:33:57.776Z,4.90
2023-09-08T19:36:29.572Z,5.03
2023-09-08T19:39:01.817Z,5.32
2023-09-08T19:41:33.670Z,5.60
2023-09-08T19:44:08.710Z,4.97
2023-09-08T19:46:40.113Z,5.30
2023-09-08T19:49:12.340Z,4.65
2023-09-08T19:51:43.704Z,5.57
2023-09-08T19:54:16.269Z,6.30
2023-09-08T19:56:48.493Z,8.85
2023-09-08T19:59:23.889Z,4.60
2023-09-08T20:01:57.496Z,4.38
2023-09-08T20:04:29.057Z,3.72
2023-09-08T20:07:01.185Z,3.40
2023-09-08T20:09:34.734Z,3.60
2023-09-08T20:12:06.562Z,3.50
2023-09-08T20:14:41.307Z,3.22
2023-09-08T20:17:13.221Z,3.45
2023-09-08T20:19:44.798Z,3.17
2023-09-08T20:22:16.314Z,3.67
2023-09-08T20:24:48.110Z,3.63
2023-09-08T20:27:20.029Z,3.42
2023-09-08T20:29:57.681Z,3.10
2023-09-08T20:32:29.549Z,3.20
2023-09-08T20:35:00.837Z,3.25
2023-09-08T20:37:32.613Z,3.80
2023-09-08T20:40:04.759Z,3.65
2023-09-08T20:42:37.271Z,3.30
2023-09-08T20:45:12.678Z,3.88
2023-09-08T20:47:46.635Z,4.03
2023-09-08T20:50:19.017Z,3.20
2023-09-08T20:52:50.756Z,3.50
2023-09-08T20:55:24.282Z,3.78
2023-09-08T20:57:56.185Z,4.28
2023-09-08T21:00:34.327Z,3.78
2023-09-08T21:03:06.419Z,4.30
2023-09-08T21:05:39.246Z,3.63
2023-09-08T21:08:11.830Z,3.78
2023-09-08T21:10:45.382Z,3.90
2023-09-08T21:13:17.415Z,4.05
2023-09-08T21:15:52.416Z,3.95
2023-09-08T21:18:25.467Z,4.13
2023-09-08T21:20:58.940Z,4.50
2023-09-08T21:23:32.761Z,3.67
2023-09-08T21:26:11.105Z,3.67
2023-09-08T21:28:44.150Z,3.80
2023-09-08T21:31:18.615Z,4.88
2023-09-08T21:33:51.471Z,4.20
2023-09-08T21:36:24.529Z,3.42
2023-09-08T21:38:59.856Z,4.45
2023-09-08T21:41:34.773Z,4.20
2023-09-08T21:44:07.731Z,4.57
2023-09-08T21:46:43.777Z,4.03
2023-09-08T21:49:16.487Z,4.22
2023-09-08T21:51:50.055Z,4.13
2023-09-08T21:54:22.488Z,3.92
2023-09-08T21:56:55.622Z,3.65
2023-09-08T21:59:30.723Z,4.03
2023-09-08T22:02:06.747Z,4.05
2023-09-08T22:04:39.806Z,3.83
2023-09-08T22:07:12.890Z,3.85
2023-09-08T22:09:45.747Z,3.60
2023-09-08T22:12:22.168Z,3.60
2023-09-08T22:14:55.793Z,3.70
2023-09-08T22:17:30.095Z,3.90
2023-09-08T22:20:02.445Z,4.13
2023-09-08T22:22:36.388Z,3.88
2023-09-08T22:25:09.463Z,3.78
2023-09-08T22:27:43.031Z,3.65
2023-09-08T22:30:17.339Z,3.40
2023-09-08T22:32:51.553Z,4.10
2023-09-08T22:35:22.671Z,4.00
2023-09-08T22:37:53.913Z,3.67
2023-09-08T22:40:25.572Z,3.58
2023-09-08T22:42:56.744Z,3.50
2023-09-08T22:45:29.375Z,3.28
2023-09-08T22:48:05.077Z,3.40
2023-09-08T22:50:37.409Z,3.08
2023-09-08T22:53:12.182Z,2.90
2023-09-08T22:55:44.404Z,3.03
2023-09-08T22:58:19.140Z,3.08
2023-09-08T23:00:51.260Z,2.83
2023-09-08T23:03:25.738Z,2.80
2023-09-08T23:05:58.815Z,2.80
2023-09-08T23:08:31.400Z,3.30
2023-09-08T23:11:04.045Z,2.83
2023-09-08T23:13:36.938Z,2.78
2023-09-08T23:16:09.626Z,3.33
2023-09-08T23:18:44.745Z,3.47
2023-09-08T23:21:18.106Z,3.22
2023-09-08T23:23:50.256Z,3.20
2023-09-08T23:26:22.835Z,3.38
2023-09-08T23:28:56.399Z,3.00
2023-09-08T23:31:31.026Z,3.17
2023-09-08T23:34:08.068Z,3.40
2023-09-08T23:36:40.310Z,3.00
2023-09-08T23:39:15.105Z,3.00
2023-09-08T23:41:48.701Z,3.35
2023-09-08T23:44:21.577Z,3.88
2023-09-08T23:46:54.288Z,3.38
2023-09-08T23:49:30.960Z,3.50
2023-09-08T23:52:03.810Z,3.80
2023-09-08T23:54:35.445Z,3.35
2023-09-08T23:57:08.396Z,3.85
2023-09-08T23:59:41.027Z,3.33
